Time;durP1;ratioP1;P1;durP2;ratioP2;P2;SDS_P1;SDS_P2;PMS_P1;PMS_P2;Temp;Humidity;BMP_temperature;BMP_pressure;BME280_temperature;BME280_humidity;BME280_pressure;Samples;Min_cycle;Max_cycle;Signal;HPM_P1;HPM_P2
2021/08/29 00:01:14;;;;;;;6.83;6.23;;;15.20;99.90;;;;;;5050866;28;20259;-61
2021/08/29 00:03:39;;;;;;;7.80;7.10;;;15.20;99.90;;;;;;5048746;28;20670;-61
2021/08/29 00:06:05;;;;;;;7.33;6.70;;;15.20;99.90;;;;;;5049208;28;20211;-60
2021/08/29 00:08:30;;;;;;;7.43;6.73;;;15.10;99.90;;;;;;5050760;28;20185;-58
2021/08/29 00:10:57;;;;;;;7.77;6.90;;;15.10;99.90;;;;;;5055061;28;20199;-61
2021/08/29 00:13:22;;;;;;;8.90;6.53;;;15.00;99.90;;;;;;5049264;28;20638;-61
2021/08/29 00:15:48;;;;;;;7.67;6.90;;;16.90;99.90;;;;;;5051802;28;20449;-59
2021/08/29 00:18:13;;;;;;;7.93;7.27;;;15.00;99.90;;;;;;5059811;28;20188;-60
2021/08/29 00:20:39;;;;;;;8.73;7.83;;;15.00;99.90;;;;;;5049711;28;20192;-58
2021/08/29 00:23:04;;;;;;;7.77;7.17;;;15.00;99.90;;;;;;5051019;28;20204;-60
2021/08/29 00:25:30;;;;;;;8.83;7.07;;;15.00;99.90;;;;;;5047815;28;20188;-61
2021/08/29 00:27:56;;;;;;;7.30;6.60;;;15.00;99.90;;;;;;5056177;28;20195;-60
2021/08/29 00:30:21;;;;;;;9.83;7.03;;;15.00;99.90;;;;;;5054653;28;20184;-61
2021/08/29 00:32:47;;;;;;;7.83;7.13;;;14.90;99.90;;;;;;5047767;28;20197;-59
2021/08/29 00:35:12;;;;;;;8.10;7.40;;;14.90;99.90;;;;;;5048253;28;20270;-62
2021/08/29 00:37:38;;;;;;;6.93;6.33;;;14.90;99.90;;;;;;5050485;28;20238;-61
2021/08/29 00:40:04;;;;;;;8.23;7.53;;;14.80;99.90;;;;;;5048141;28;20220;-60
2021/08/29 00:42:31;;;;;;;7.93;7.13;;;14.80;99.90;;;;;;5043530;28;20235;-59
2021/08/29 00:44:56;;;;;;;8.00;7.20;;;14.80;99.90;;;;;;5050638;28;20529;-59
2021/08/29 00:47:22;;;;;;;8.50;6.90;;;14.90;99.90;;;;;;5049519;28;21401;-60
2021/08/29 00:49:47;;;;;;;8.50;7.70;;;14.90;99.90;;;;;;5050266;28;20184;-60
2021/08/29 00:52:13;;;;;;;8.67;7.87;;;14.90;99.90;;;;;;5050170;28;20626;-61
2021/08/29 00:54:39;;;;;;;7.57;6.93;;;14.90;99.90;;;;;;5052374;28;20181;-61
2021/08/29 00:57:09;;;;;;;7.53;6.93;;;14.90;99.90;;;;;;5053212;28;20200;-59
2021/08/29 00:59:36;;;;;;;8.10;7.40;;;14.90;99.90;;;;;;5050592;28;20196;-60
2021/08/29 01:02:10;;;;;;;8.37;7.60;;;14.90;99.90;;;;;;5050927;28;20436;-61
2021/08/29 01:04:46;;;;;;;8.03;7.33;;;14.90;99.90;;;;;;5052249;28;20457;-59
2021/08/29 01:07:22;;;;;;;7.87;6.90;;;15.00;99.90;;;;;;5054367;28;20417;-60
2021/08/29 01:09:59;;;;;;;9.20;7.40;;;14.90;99.90;;;;;;5051417;28;20434;-61
2021/08/29 01:12:27;;;;;;;8.33;7.67;;;14.90;99.90;;;;;;5049058;28;20465;-59
2021/08/29 01:14:55;;;;;;;9.03;8.00;;;15.00;99.90;;;;;;5047789;28;20458;-60
2021/08/29 01:17:24;;;;;;;8.53;7.73;;;15.00;99.90;;;;;;5050578;28;20513;-61
2021/08/29 01:20:20;;;;;;;9.20;8.40;;;15.00;99.90;;;;;;5049522;28;20528;-61
2021/08/29 01:22:47;;;;;;;7.93;7.17;;;15.00;99.90;;;;;;5049207;28;20491;-62
2021/08/29 01:25:19;;;;;;;8.77;8.07;;;15.00;99.90;;;;;;5049868;28;20449;-59
2021/08/29 01:27:59;;;;;;;8.93;8.03;;;15.00;99.90;;;;;;5051226;28;20449;-60
2021/08/29 01:30:25;;;;;;;10.93;8.23;;;15.00;99.90;;;;;;5050731;28;20473;-61
2021/08/29 01:32:54;;;;;;;9.73;8.90;;;15.00;99.90;;;;;;5047641;28;20918;-61
2021/08/29 01:35:20;;;;;;;9.23;8.37;;;14.90;99.90;;;;;;5050258;28;20808;-60
2021/08/29 01:37:46;;;;;;;9.43;8.43;;;14.90;99.90;;;;;;5050403;28;20458;-61
2021/08/29 01:40:12;;;;;;;10.80;8.30;;;14.80;99.90;;;;;;5048512;28;20425;-59
2021/08/29 01:42:39;;;;;;;8.43;7.30;;;14.80;99.90;;;;;;5042695;28;20216;-60
2021/08/29 01:45:05;;;;;;;8.20;7.40;;;14.80;99.90;;;;;;5048344;28;20469;-60
2021/08/29 01:47:31;;;;;;;8.40;7.60;;;14.80;99.90;;;;;;5045849;28;20397;-60
2021/08/29 01:49:58;;;;;;;9.00;8.10;;;14.70;99.90;;;;;;5052252;28;20421;-59
2021/08/29 01:52:23;;;;;;;8.37;7.53;;;14.70;99.90;;;;;;5047425;28;20248;-59
2021/08/29 01:54:49;;;;;;;7.83;7.10;;;14.70;99.90;;;;;;5055315;28;20530;-61
2021/08/29 01:57:15;;;;;;;9.27;8.20;;;14.70;99.90;;;;;;5056471;28;20612;-60
2021/08/29 01:59:43;;;;;;;8.63;7.80;;;14.70;99.90;;;;;;5054604;28;20180;-59
2021/08/29 02:02:12;;;;;;;8.70;7.80;;;14.60;99.90;;;;;;5055933;28;20204;-60
2021/08/29 02:04:39;;;;;;;10.83;8.50;;;14.50;99.90;;;;;;5054168;28;20494;-61
2021/08/29 02:07:25;;;;;;;10.87;7.00;;;14.50;99.90;;;;;;5056071;28;20789;-59
2021/08/29 02:09:54;;;;;;;8.67;7.70;;;14.50;99.90;;;;;;5054048;28;20446;-60
2021/08/29 02:12:21;;;;;;;8.47;7.67;;;14.50;99.90;;;;;;5045318;28;20447;-61
2021/08/29 02:15:07;;;;;;;8.57;7.73;;;14.50;99.90;;;;;;5053965;28;20420;-60
2021/08/29 02:17:34;;;;;;;8.07;7.37;;;14.50;99.90;;;;;;5055066;28;20499;-59
2021/08/29 02:20:04;;;;;;;8.13;7.43;;;14.50;99.90;;;;;;5059263;28;20417;-59
2021/08/29 02:22:32;;;;;;;8.57;7.73;;;14.50;99.90;;;;;;5053600;28;20485;-59
2021/08/29 02:24:58;;;;;;;9.23;8.33;;;14.40;99.90;;;;;;5053280;28;20439;-60
2021/08/29 02:27:24;;;;;;;9.13;8.23;;;14.40;99.90;;;;;;5052272;28;20454;-59
2021/08/29 02:29:50;;;;;;;8.27;7.23;;;14.30;99.90;;;;;;5053404;28;20180;-60
2021/08/29 02:32:16;;;;;;;8.27;7.20;;;14.30;99.90;;;;;;5050224;28;20188;-60
2021/08/29 02:34:42;;;;;;;7.33;6.63;;;14.30;99.90;;;;;;5053465;28;20445;-60
2021/08/29 02:37:10;;;;;;;7.53;6.77;;;14.30;99.90;;;;;;5052938;28;20786;-58
2021/08/29 02:39:36;;;;;;;9.17;7.37;;;14.30;99.90;;;;;;5053363;28;20447;-60
2021/08/29 02:42:04;;;;;;;7.50;6.80;;;14.20;99.90;;;;;;5050638;28;20478;-59
2021/08/29 02:44:30;;;;;;;6.80;6.20;;;14.20;99.90;;;;;;5052043;28;20525;-59
2021/08/29 02:46:55;;;;;;;7.00;6.37;;;14.20;99.90;;;;;;5053766;28;20537;-59
2021/08/29 02:49:22;;;;;;;7.13;6.50;;;14.20;99.90;;;;;;5055126;28;20196;-60
2021/08/29 02:51:50;;;;;;;8.00;7.13;;;14.20;99.90;;;;;;5053356;28;20254;-61
2021/08/29 02:54:16;;;;;;;6.50;5.87;;;14.30;99.90;;;;;;5052889;28;20443;-60
2021/08/29 02:56:44;;;;;;;7.17;6.57;;;14.30;99.90;;;;;;5055930;28;20435;-59
2021/08/29 02:59:10;;;;;;;6.73;5.93;;;14.40;99.90;;;;;;5053836;28;20455;-60
2021/08/29 03:01:36;;;;;;;6.13;5.50;;;14.40;99.90;;;;;;5051363;28;20835;-59
2021/08/29 03:04:01;;;;;;;7.00;6.30;;;14.50;99.90;;;;;;5057477;28;20263;-59
2021/08/29 03:06:27;;;;;;;6.77;6.17;;;14.50;99.90;;;;;;5053569;28;20238;-62
2021/08/29 03:08:53;;;;;;;6.40;5.80;;;14.50;99.90;;;;;;5052784;28;20488;-60
2021/08/29 03:11:20;;;;;;;9.10;6.60;;;14.50;99.90;;;;;;5052380;28;20180;-60
2021/08/29 03:13:47;;;;;;;6.27;5.57;;;14.40;99.90;;;;;;5061293;28;20240;-59
2021/08/29 03:16:13;;;;;;;6.50;5.90;;;14.40;99.90;;;;;;5054090;28;20450;-60
2021/08/29 03:18:39;;;;;;;7.07;6.40;;;14.40;99.90;;;;;;5053614;28;20518;-61
2021/08/29 03:21:05;;;;;;;6.37;5.87;;;14.40;99.90;;;;;;5051527;28;20243;-59
2021/08/29 03:23:31;;;;;;;7.00;6.40;;;14.30;99.90;;;;;;5051216;28;20472;-60
2021/08/29 03:25:56;;;;;;;7.07;5.73;;;14.30;99.90;;;;;;5051147;28;20185;-60
2021/08/29 03:28:22;;;;;;;7.20;6.53;;;14.30;99.90;;;;;;5059220;28;20424;-59
2021/08/29 03:30:48;;;;;;;5.67;5.17;;;14.30;99.90;;;;;;5052242;28;20172;-60
2021/08/29 03:33:14;;;;;;;7.00;6.40;;;14.20;99.90;;;;;;5049232;28;20193;-59
2021/08/29 03:35:39;;;;;;;6.23;5.73;;;14.20;99.90;;;;;;5050067;28;20224;-60
2021/08/29 03:38:06;;;;;;;6.13;5.60;;;14.20;99.90;;;;;;5051649;28;20535;-59
2021/08/29 03:40:32;;;;;;;5.87;5.30;;;14.10;99.90;;;;;;5048897;28;20569;-60
2021/08/29 03:42:58;;;;;;;6.20;5.40;;;14.10;99.90;;;;;;5057572;28;20812;-59
2021/08/29 03:45:24;;;;;;;6.40;5.80;;;14.10;99.90;;;;;;5051384;28;20443;-59
2021/08/29 03:47:50;;;;;;;7.00;6.40;;;14.10;99.90;;;;;;5053117;28;20184;-60
2021/08/29 03:50:15;;;;;;;6.57;6.07;;;14.10;99.90;;;;;;5050775;28;20185;-59
2021/08/29 03:52:42;;;;;;;8.37;6.43;;;14.00;99.90;;;;;;5051552;28;20238;-58
2021/08/29 03:55:08;;;;;;;6.63;6.13;;;14.00;99.90;;;;;;5054907;28;20910;-63
2021/08/29 03:57:35;;;;;;;6.77;6.17;;;14.10;99.90;;;;;;5051462;28;20497;-61
2021/08/29 04:00:01;;;;;;;6.50;5.90;;;14.10;99.90;;;;;;5051396;28;20418;-59
2021/08/29 04:02:27;;;;;;;6.93;6.33;;;14.10;99.90;;;;;;5053812;28;20442;-59
2021/08/29 04:04:53;;;;;;;7.13;6.53;;;14.00;99.90;;;;;;5051316;28;20185;-59
2021/08/29 04:07:18;;;;;;;6.50;5.90;;;14.00;99.90;;;;;;5052677;28;20790;-61
2021/08/29 04:09:45;;;;;;;6.60;6.00;;;14.00;99.90;;;;;;5050960;28;20492;-61
2021/08/29 04:12:12;;;;;;;7.83;6.33;;;14.00;99.90;;;;;;5050868;28;20234;-59
2021/08/29 04:14:38;;;;;;;8.13;6.53;;;13.90;99.90;;;;;;5060881;28;20953;-61
2021/08/29 04:17:04;;;;;;;7.80;7.10;;;13.90;99.90;;;;;;5048838;28;20546;-60
2021/08/29 04:19:31;;;;;;;9.03;8.33;;;14.00;99.90;;;;;;5048130;28;20184;-61
2021/08/29 04:21:56;;;;;;;10.63;9.53;;;14.00;99.90;;;;;;5048747;28;20512;-62
2021/08/29 04:24:22;;;;;;;13.10;10.77;;;14.00;99.90;;;;;;5054928;28;20744;-60
2021/08/29 04:26:48;;;;;;;18.37;13.63;;;14.10;99.90;;;;;;5050446;28;20177;-59
2021/08/29 04:29:14;;;;;;;20.17;15.73;;;14.00;99.90;;;;;;5058013;28;20513;-60
2021/08/29 04:31:46;;;;;;;18.00;14.90;;;14.20;99.90;;;;;;5050916;28;20189;-60
2021/08/29 04:34:11;;;;;;;19.70;15.60;;;14.20;99.90;;;;;;5048832;28;20786;-60
2021/08/29 04:36:38;;;;;;;17.50;15.40;;;14.30;99.90;;;;;;5050129;28;20459;-60
2021/08/29 04:39:05;;;;;;;19.30;15.50;;;14.40;99.90;;;;;;5050982;28;20222;-60
2021/08/29 04:41:31;;;;;;;21.30;16.80;;;14.40;99.90;;;;;;5047289;28;20592;-60
2021/08/29 04:43:57;;;;;;;21.90;17.70;;;14.40;99.90;;;;;;5049760;28;20542;-59
2021/08/29 04:46:23;;;;;;;18.00;15.53;;;14.50;99.90;;;;;;5047427;28;20649;-59
2021/08/29 04:48:48;;;;;;;20.30;14.60;;;14.60;99.90;;;;;;5040885;28;20197;-59
2021/08/29 04:51:14;;;;;;;19.57;16.60;;;14.50;99.90;;;;;;5048127;28;20433;-62
2021/08/29 04:53:39;;;;;;;18.80;14.00;;;14.50;99.90;;;;;;5054088;28;20657;-59
2021/08/29 04:56:05;;;;;;;19.63;14.20;;;14.60;99.90;;;;;;5050070;28;20193;-59
2021/08/29 04:58:30;;;;;;;18.50;14.67;;;14.70;99.90;;;;;;5047558;28;20881;-60
2021/08/29 05:00:56;;;;;;;16.43;13.80;;;14.70;99.90;;;;;;5048415;28;20275;-59
2021/08/29 05:03:21;;;;;;;16.67;13.13;;;14.80;99.90;;;;;;5048358;28;20740;-59
2021/08/29 05:05:47;;;;;;;16.03;13.67;;;14.80;99.90;;;;;;5045893;28;20673;-58
2021/08/29 05:08:12;;;;;;;15.33;13.03;;;14.80;99.90;;;;;;5048781;28;20185;-58
2021/08/29 05:10:38;;;;;;;13.93;12.33;;;14.80;99.90;;;;;;5047428;28;20188;-61
2021/08/29 05:13:03;;;;;;;14.57;12.80;;;14.90;97.40;;;;;;5049744;28;20314;-59
2021/08/29 05:15:29;;;;;;;14.80;13.23;;;14.90;92.30;;;;;;5049274;28;20184;-59
2021/08/29 05:17:55;;;;;;;14.57;13.03;;;15.00;90.40;;;;;;5049186;28;20218;-60
2021/08/29 05:20:20;;;;;;;15.37;12.27;;;15.00;79.50;;;;;;5049209;28;20632;-59
2021/08/29 05:22:46;;;;;;;16.00;13.50;;;15.00;81.10;;;;;;5047684;28;20224;-59
2021/08/29 05:25:11;;;;;;;15.20;12.63;;;15.10;72.40;;;;;;5047406;28;20246;-60
2021/08/29 05:27:37;;;;;;;15.97;12.70;;;15.10;68.70;;;;;;5048745;28;20614;-61
2021/08/29 05:30:03;;;;;;;18.83;14.10;;;15.20;57.40;;;;;;5053164;28;20634;-60
2021/08/29 05:32:29;;;;;;;14.47;12.70;;;15.30;50.10;;;;;;5047079;28;20201;-60
2021/08/29 05:34:54;;;;;;;16.23;12.40;;;15.30;49.80;;;;;;5055062;28;20488;-59
2021/08/29 05:37:20;;;;;;;16.73;13.50;;;15.40;45.00;;;;;;5053418;28;20203;-60
2021/08/29 05:39:45;;;;;;;15.60;12.70;;;15.50;40.40;;;;;;5052175;28;20255;-61
2021/08/29 05:42:11;;;;;;;17.87;14.97;;;15.50;28.20;;;;;;5050975;28;20317;-61
2021/08/29 05:44:36;;;;;;;16.73;12.80;;;15.60;21.90;;;;;;5057459;28;20512;-59
2021/08/29 05:47:02;;;;;;;15.67;12.90;;;15.60;19.40;;;;;;5050749;28;20197;-60
2021/08/29 05:49:28;;;;;;;18.07;13.20;;;15.70;5.30;;;;;;5052080;28;21623;-59
2021/08/29 05:51:53;;;;;;;14.07;12.20;;;15.70;1.00;;;;;;5058122;28;20242;-61
2021/08/29 05:54:19;;;;;;;18.50;13.07;;;15.80;1.00;;;;;;5053349;28;20181;-60
2021/08/29 05:56:44;;;;;;;14.20;12.70;;;15.80;1.00;;;;;;5051666;28;20711;-61
2021/08/29 05:59:10;;;;;;;16.40;12.70;;;15.80;1.00;;;;;;5047396;28;20259;-60
2021/08/29 06:01:35;;;;;;;15.23;12.10;;;15.80;1.00;;;;;;5051407;28;20188;-61
2021/08/29 06:04:01;;;;;;;15.70;11.97;;;15.80;1.00;;;;;;5052244;28;20184;-59
2021/08/29 06:06:27;;;;;;;16.97;13.00;;;15.90;1.00;;;;;;5051498;28;20546;-59
2021/08/29 06:08:52;;;;;;;13.33;10.87;;;16.00;1.00;;;;;;5053335;28;20196;-61
2021/08/29 06:11:18;;;;;;;15.87;11.60;;;16.20;1.00;;;;;;5050981;28;20666;-60
2021/08/29 06:13:44;;;;;;;14.57;11.37;;;16.20;1.00;;;;;;5051809;28;20196;-60
2021/08/29 06:16:09;;;;;;;17.77;12.53;;;16.30;1.00;;;;;;5054113;28;20196;-61
2021/08/29 06:18:35;;;;;;;13.67;11.03;;;16.50;1.00;;;;;;5052270;28;20540;-59
2021/08/29 06:21:00;;;;;;;12.63;11.00;;;16.60;1.00;;;;;;5047505;28;20204;-60
2021/08/29 06:23:26;;;;;;;14.67;11.30;;;16.70;1.00;;;;;;5051269;28;20219;-59
2021/08/29 06:25:51;;;;;;;16.30;11.73;;;16.70;1.00;;;;;;5047529;28;20665;-61
2021/08/29 06:28:17;;;;;;;17.17;11.57;;;16.70;1.00;;;;;;5050300;28;20192;-61
2021/08/29 06:30:42;;;;;;;13.80;11.30;;;16.80;1.00;;;;;;5047168;28;20223;-61
2021/08/29 06:33:08;;;;;;;12.67;10.00;;;16.90;1.00;;;;;;5043534;28;20934;-60
2021/08/29 06:35:33;;;;;;;13.10;10.47;;;17.10;1.00;;;;;;5052025;28;20221;-60
2021/08/29 06:37:59;;;;;;;14.60;10.90;;;17.30;1.00;;;;;;5050087;28;20507;-60
2021/08/29 06:40:24;;;;;;;16.30;11.80;;;17.40;1.00;;;;;;5048654;28;20185;-60
2021/08/29 06:42:50;;;;;;;11.70;10.37;;;17.60;1.00;;;;;;5051593;28;20311;-61
2021/08/29 06:45:15;;;;;;;14.07;11.27;;;17.70;1.00;;;;;;5050285;28;20193;-62
2021/08/29 06:47:41;;;;;;;14.47;10.50;;;17.80;1.00;;;;;;5050758;28;20207;-61
2021/08/29 06:50:07;;;;;;;13.70;10.60;;;17.80;1.00;;;;;;5045048;28;20679;-61
2021/08/29 06:52:32;;;;;;;12.50;10.77;;;17.80;1.00;;;;;;5049719;28;20199;-61
2021/08/29 06:54:58;;;;;;;11.40;9.33;;;17.90;1.00;;;;;;5053078;28;20516;-60
2021/08/29 06:57:25;;;;;;;11.50;9.33;;;18.00;1.00;;;;;;5051082;28;20748;-60
2021/08/29 06:59:51;;;;;;;13.30;10.33;;;18.20;1.00;;;;;;5050404;28;20217;-61
2021/08/29 07:02:17;;;;;;;12.03;10.53;;;18.30;1.00;;;;;;5049945;28;20539;-60
2021/08/29 07:04:42;;;;;;;12.20;10.47;;;18.40;1.00;;;;;;5046351;28;20842;-61
2021/08/29 07:07:09;;;;;;;12.30;10.10;;;18.50;1.00;;;;;;5046204;28;20188;-61
2021/08/29 07:09:38;;;;;;;12.87;9.53;;;18.50;1.00;;;;;;5050641;28;20209;-59
2021/08/29 07:12:04;;;;;;;11.20;9.73;;;18.50;1.00;;;;;;5050962;28;20537;-61
2021/08/29 07:14:29;;;;;;;13.13;10.63;;;18.50;1.00;;;;;;5055642;28;20523;-61
2021/08/29 07:16:55;;;;;;;12.33;9.90;;;18.60;1.00;;;;;;5052607;28;20897;-59
2021/08/29 07:19:20;;;;;;;10.73;9.53;;;18.60;1.00;;;;;;5051868;28;20215;-60
2021/08/29 07:21:46;;;;;;;13.40;10.50;;;18.70;1.00;;;;;;5051427;28;20236;-59
2021/08/29 07:24:11;;;;;;;13.30;11.10;;;18.70;1.00;;;;;;5054318;28;20239;-62
2021/08/29 07:26:37;;;;;;;12.50;10.57;;;18.80;1.00;;;;;;5051414;28;20221;-62
2021/08/29 07:29:02;;;;;;;11.10;9.30;;;18.80;1.00;;;;;;5052544;28;20233;-60
2021/08/29 07:31:28;;;;;;;13.80;10.80;;;18.90;1.00;;;;;;5053362;28;20215;-61
2021/08/29 07:33:55;;;;;;;14.10;11.00;;;19.00;1.00;;;;;;5051094;28;20288;-61
2021/08/29 07:36:21;;;;;;;14.20;11.00;;;19.10;1.00;;;;;;5051799;28;20198;-60
2021/08/29 07:38:47;;;;;;;13.23;9.90;;;19.20;1.00;;;;;;5055422;28;20409;-61
2021/08/29 07:41:12;;;;;;;12.67;9.80;;;19.30;1.00;;;;;;5058844;28;20418;-58
2021/08/29 07:43:38;;;;;;;10.53;9.27;;;19.60;1.00;;;;;;5059681;28;20633;-59
2021/08/29 07:46:03;;;;;;;11.93;10.17;;;19.80;1.00;;;;;;5058840;28;20203;-59
2021/08/29 07:48:29;;;;;;;12.97;10.90;;;20.00;1.00;;;;;;5057955;28;20187;-59
2021/08/29 07:50:54;;;;;;;15.50;11.27;;;20.10;1.00;;;;;;5056472;28;20199;-61
2021/08/29 07:53:20;;;;;;;11.57;10.30;;;20.30;1.00;;;;;;5058219;28;20188;-60
2021/08/29 07:55:45;;;;;;;13.33;11.93;;;20.30;1.00;;;;;;5056238;28;20675;-59
2021/08/29 07:58:11;;;;;;;15.00;10.20;;;20.20;1.00;;;;;;5057845;28;20570;-60
2021/08/29 08:00:37;;;;;;;11.30;10.00;;;20.10;1.00;;;;;;5054418;28;20278;-61
2021/08/29 08:03:02;;;;;;;13.80;10.77;;;19.90;1.00;;;;;;5060600;28;20199;-59
2021/08/29 08:05:28;;;;;;;11.03;9.93;;;22.00;1.00;;;;;;5056052;28;20189;-59
2021/08/29 08:07:53;;;;;;;13.03;10.60;;;19.90;1.00;;;;;;5059133;28;20622;-58
2021/08/29 08:10:21;;;;;;;14.43;10.57;;;20.10;1.00;;;;;;5054869;28;20169;-60
2021/08/29 08:12:46;;;;;;;14.23;10.77;;;20.30;1.00;;;;;;5052813;28;20204;-59
2021/08/29 08:15:12;;;;;;;12.73;10.80;;;20.50;1.00;;;;;;5057223;28;20475;-59
2021/08/29 08:17:39;;;;;;;13.50;12.10;;;20.70;1.00;;;;;;5037217;28;20181;-59
2021/08/29 08:20:07;;;;;;;13.33;11.70;;;20.90;1.00;;;;;;5052782;28;20187;-59
2021/08/29 08:22:33;;;;;;;12.37;10.70;;;21.10;1.00;;;;;;5051199;28;21020;-60
2021/08/29 08:24:58;;;;;;;12.37;10.57;;;21.00;1.00;;;;;;5060223;28;20429;-60
2021/08/29 08:27:24;;;;;;;15.03;12.00;;;20.90;1.00;;;;;;5052228;28;20189;-63
2021/08/29 08:29:50;;;;;;;14.63;11.77;;;20.70;1.00;;;;;;5059207;28;20184;-59
2021/08/29 08:32:15;;;;;;;13.97;12.57;;;20.70;1.00;;;;;;5055366;28;20184;-60
2021/08/29 08:34:41;;;;;;;12.43;11.03;;;20.90;1.00;;;;;;5049845;28;20271;-60
2021/08/29 08:37:06;;;;;;;12.70;11.40;;;21.00;1.00;;;;;;5051194;28;20659;-59
2021/08/29 08:39:32;;;;;;;12.00;10.70;;;21.00;1.00;;;;;;5057461;28;20184;-61
2021/08/29 08:41:58;;;;;;;11.83;9.63;;;21.10;1.00;;;;;;5057031;28;20198;-60
2021/08/29 08:44:24;;;;;;;11.33;10.13;;;21.10;1.00;;;;;;5053289;28;20202;-60
2021/08/29 08:46:55;;;;;;;10.93;9.93;;;21.30;1.00;;;;;;5055724;28;20914;-60
2021/08/29 08:49:21;;;;;;;12.30;10.40;;;21.50;1.00;;;;;;5058871;28;20189;-62
2021/08/29 08:51:47;;;;;;;11.70;10.47;;;21.70;1.00;;;;;;5059313;28;20437;-60
2021/08/29 08:54:16;;;;;;;11.47;10.27;;;21.70;1.00;;;;;;5053091;28;20440;-61
2021/08/29 08:56:42;;;;;;;12.47;10.70;;;21.90;1.00;;;;;;5053292;28;20443;-59
2021/08/29 08:59:08;;;;;;;11.33;10.13;;;22.20;1.00;;;;;;5056910;28;20453;-59
2021/08/29 09:01:34;;;;;;;11.73;10.63;;;22.20;1.00;;;;;;5049390;28;20447;-60
2021/08/29 09:04:00;;;;;;;14.00;11.17;;;22.00;1.00;;;;;;5051163;28;20177;-57
2021/08/29 09:06:26;;;;;;;11.10;9.90;;;21.60;1.00;;;;;;5049830;28;20434;-57
2021/08/29 09:08:51;;;;;;;12.57;10.83;;;21.70;1.00;;;;;;5051351;28;20525;-58
2021/08/29 09:11:17;;;;;;;11.40;10.20;;;22.00;1.00;;;;;;5053028;28;20188;-58
2021/08/29 09:13:49;;;;;;;10.90;9.80;;;22.00;1.00;;;;;;5054402;28;20294;-57
2021/08/29 09:16:19;;;;;;;11.50;10.30;;;22.40;1.00;;;;;;5050083;28;20538;-57
2021/08/29 09:18:48;;;;;;;11.60;10.50;;;22.90;1.00;;;;;;5050019;28;20916;-58
2021/08/29 09:21:25;;;;;;;11.30;10.20;;;23.10;1.00;;;;;;5050856;28;21078;-58
2021/08/29 09:23:52;;;;;;;10.10;8.83;;;23.20;1.00;;;;;;5052858;28;20552;-58
2021/08/29 09:26:19;;;;;;;11.10;10.10;;;23.70;1.00;;;;;;5051118;28;20413;-58
2021/08/29 09:28:46;;;;;;;10.10;9.20;;;24.50;1.00;;;;;;5050877;28;20425;-58
2021/08/29 09:31:14;;;;;;;11.40;10.30;;;24.70;1.00;;;;;;5052287;28;20424;-59
2021/08/29 09:33:40;;;;;;;10.60;9.50;;;24.20;1.00;;;;;;5050003;28;20456;-56
2021/08/29 09:36:06;;;;;;;9.60;8.60;;;24.30;1.00;;;;;;5049803;28;20836;-57
2021/08/29 09:38:39;;;;;;;10.97;9.97;;;24.50;1.00;;;;;;5049535;28;20530;-59
2021/08/29 09:41:23;;;;;;;9.63;8.73;;;24.60;1.00;;;;;;5055060;28;20215;-57
2021/08/29 09:43:49;;;;;;;9.97;9.03;;;24.10;1.00;;;;;;5049266;28;20441;-59
2021/08/29 09:46:15;;;;;;;9.13;8.30;;;24.10;1.00;;;;;;5050262;28;20853;-59
2021/08/29 09:48:46;;;;;;;10.80;9.70;;;24.40;1.00;;;;;;5049557;28;20584;-58
2021/08/29 09:51:12;;;;;;;9.40;8.50;;;24.40;1.00;;;;;;5048270;28;20226;-58
2021/08/29 09:53:43;;;;;;;9.70;8.77;;;24.30;1.00;;;;;;5049777;28;20962;-58
2021/08/29 09:56:23;;;;;;;10.43;9.43;;;24.30;1.00;;;;;;5049197;28;20420;-58
2021/08/29 09:58:49;;;;;;;9.53;8.70;;;24.30;1.00;;;;;;5049243;28;20417;-57
2021/08/29 10:01:18;;;;;;;9.03;8.20;;;24.00;1.00;;;;;;5050449;28;20427;-58
2021/08/29 10:03:50;;;;;;;10.73;9.40;;;23.70;1.00;;;;;;5053508;28;20444;-58
2021/08/29 10:06:28;;;;;;;9.67;8.77;;;23.30;1.00;;;;;;5052344;28;20425;-57
2021/08/29 10:08:55;;;;;;;8.53;7.73;;;23.00;1.00;;;;;;5049583;28;20737;-58
2021/08/29 10:11:23;;;;;;;8.53;7.73;;;23.10;1.00;;;;;;5050772;28;20440;-57
2021/08/29 10:13:50;;;;;;;9.07;8.20;;;23.10;1.00;;;;;;5048903;28;20471;-57
2021/08/29 10:16:18;;;;;;;8.80;7.63;;;23.20;1.00;;;;;;5058034;28;20415;-59
2021/08/29 10:18:46;;;;;;;9.40;8.50;;;23.50;1.00;;;;;;5059763;28;20534;-58
2021/08/29 10:21:15;;;;;;;9.70;8.67;;;23.70;1.00;;;;;;5053614;28;20501;-58
2021/08/29 10:23:44;;;;;;;9.63;8.73;;;23.90;1.00;;;;;;5053532;28;20491;-58
2021/08/29 10:26:11;;;;;;;8.70;7.90;;;23.80;1.00;;;;;;5058314;28;20450;-57
2021/08/29 10:28:42;;;;;;;7.60;7.00;;;23.40;1.00;;;;;;5051996;28;20434;-58
2021/08/29 10:31:11;;;;;;;7.50;6.70;;;22.70;1.00;;;;;;5053522;28;20439;-59
2021/08/29 10:33:39;;;;;;;7.60;6.90;;;22.40;1.00;;;;;;5054751;28;20504;-60
2021/08/29 10:36:06;;;;;;;9.33;8.40;;;22.10;1.00;;;;;;5072628;28;20444;-60
2021/08/29 10:38:34;;;;;;;7.77;7.07;;;22.00;1.00;;;;;;5072110;28;20416;-59
2021/08/29 10:41:00;;;;;;;8.03;7.23;;;21.80;1.00;;;;;;5061877;28;20444;-59
2021/08/29 10:43:28;;;;;;;8.70;7.90;;;21.40;1.00;;;;;;5051731;28;20898;-59
2021/08/29 10:45:53;;;;;;;7.63;7.00;;;21.60;1.00;;;;;;5052616;28;20918;-61
2021/08/29 10:48:20;;;;;;;8.03;7.33;;;21.90;1.00;;;;;;5050113;28;20419;-59
2021/08/29 10:50:47;;;;;;;7.80;7.10;;;22.10;1.00;;;;;;5050731;28;20176;-59
2021/08/29 10:53:40;;;;;;;8.27;7.47;;;22.20;1.00;;;;;;5052918;28;20420;-59
2021/08/29 10:56:15;;;;;;;9.33;7.93;;;22.50;1.00;;;;;;5050056;28;21027;-60
2021/08/29 10:58:41;;;;;;;8.13;7.33;;;22.80;1.00;;;;;;5052431;28;20421;-58
2021/08/29 11:01:38;;;;;;;7.70;6.90;;;23.40;1.00;;;;;;5052268;28;20966;-59
2021/08/29 11:04:19;;;;;;;7.63;6.83;;;23.50;1.00;;;;;;5063669;28;20444;-61
2021/08/29 11:06:53;;;;;;;8.83;7.07;;;23.60;1.00;;;;;;5060698;28;20938;-60
2021/08/29 11:09:37;;;;;;;7.07;6.40;;;23.70;1.00;;;;;;5057012;28;20509;-60
2021/08/29 11:12:04;;;;;;;8.53;7.73;;;23.70;1.00;;;;;;5054214;28;20429;-59
2021/08/29 11:14:40;;;;;;;8.87;8.00;;;23.40;1.00;;;;;;5059774;28;20409;-59
2021/08/29 11:17:13;;;;;;;9.20;8.40;;;22.80;1.00;;;;;;5072560;28;20900;-59
2021/08/29 11:19:40;;;;;;;7.97;7.23;;;22.80;1.00;;;;;;5048788;28;20537;-61
2021/08/29 11:22:09;;;;;;;7.67;6.87;;;22.80;1.00;;;;;;5052404;28;20440;-59
2021/08/29 11:24:56;;;;;;;7.43;6.73;;;22.90;1.00;;;;;;5052442;28;20490;-60
2021/08/29 11:27:39;;;;;;;7.60;6.90;;;23.30;1.00;;;;;;5052794;28;20442;-60
2021/08/29 11:30:04;;;;;;;6.10;5.50;;;23.40;1.00;;;;;;5064913;28;20909;-60
2021/08/29 11:32:45;;;;;;;5.33;4.83;;;23.30;1.00;;;;;;5071150;28;20434;-61
2021/08/29 11:35:12;;;;;;;6.50;5.90;;;23.30;1.00;;;;;;5055221;28;20220;-60
2021/08/29 11:37:38;;;;;;;6.00;5.50;;;23.30;1.00;;;;;;5052301;28;20413;-59
2021/08/29 11:40:07;;;;;;;6.00;5.50;;;23.20;1.00;;;;;;5052625;28;20409;-59
2021/08/29 11:42:34;;;;;;;7.80;5.20;;;23.20;1.00;;;;;;5072190;28;20433;-60
2021/08/29 11:45:00;;;;;;;6.30;5.80;;;23.40;1.00;;;;;;5072416;28;20438;-59
2021/08/29 11:47:36;;;;;;;5.90;5.10;;;23.70;1.00;;;;;;5069000;28;20450;-60
2021/08/29 11:50:04;;;;;;;8.07;6.13;;;23.70;1.00;;;;;;5052441;28;20743;-61
2021/08/29 11:52:32;;;;;;;6.67;6.07;;;23.70;1.00;;;;;;5055300;28;20747;-59
2021/08/29 11:55:12;;;;;;;5.73;5.23;;;23.40;1.00;;;;;;5071889;28;20440;-60
2021/08/29 11:57:53;;;;;;;6.00;5.50;;;23.00;1.00;;;;;;5066593;28;20421;-59
2021/08/29 12:00:23;;;;;;;6.03;5.53;;;22.70;1.00;;;;;;5051156;28;20540;-59
2021/08/29 12:02:52;;;;;;;5.70;4.90;;;23.00;1.00;;;;;;5054413;28;20459;-60
2021/08/29 12:05:19;;;;;;;5.03;4.57;;;23.20;1.00;;;;;;5071536;28;20579;-60
2021/08/29 12:07:46;;;;;;;5.10;4.70;;;23.30;1.00;;;;;;5069424;28;20502;-60
2021/08/29 12:10:12;;;;;;;5.30;4.80;;;23.50;1.00;;;;;;5056645;28;20565;-60
2021/08/29 12:12:45;;;;;;;5.00;4.50;;;23.70;1.00;;;;;;5071225;28;20456;-61
2021/08/29 12:15:12;;;;;;;5.87;5.30;;;24.30;1.00;;;;;;5070847;28;20421;-59
2021/08/29 12:17:40;;;;;;;4.93;4.53;;;24.70;1.00;;;;;;5051366;28;20512;-60
2021/08/29 12:20:08;;;;;;;5.00;4.60;;;24.50;1.00;;;;;;5067833;28;20818;-61
2021/08/29 12:22:37;;;;;;;4.20;3.90;;;24.30;1.00;;;;;;5071024;28;20527;-59
2021/08/29 12:25:04;;;;;;;4.70;4.30;;;24.40;1.00;;;;;;5071394;28;20459;-59
2021/08/29 12:27:30;;;;;;;3.73;3.43;;;24.40;1.00;;;;;;5071063;28;20922;-59
2021/08/29 12:29:59;;;;;;;4.00;3.60;;;24.50;1.00;;;;;;5071526;28;20462;-60
2021/08/29 12:32:30;;;;;;;2.93;2.73;;;24.60;1.00;;;;;;5071141;28;20528;-61
2021/08/29 12:35:01;;;;;;;3.40;3.10;;;24.40;1.00;;;;;;5071175;28;20474;-60
2021/08/29 12:37:29;;;;;;;3.10;2.87;;;24.50;1.00;;;;;;5071131;28;20503;-61
2021/08/29 12:39:59;;;;;;;3.57;3.27;;;24.80;1.00;;;;;;5052117;28;20414;-59
2021/08/29 12:42:27;;;;;;;4.20;3.90;;;25.00;1.00;;;;;;5069222;28;20545;-60
2021/08/29 12:44:57;;;;;;;4.00;3.60;;;25.00;1.00;;;;;;5070214;28;20952;-59
2021/08/29 12:47:23;;;;;;;4.00;3.70;;;25.10;1.00;;;;;;5055171;28;20903;-59